sensor_id;sensor_type;location;lat;lon;timestamp;pressure;altitude;pressure_sealevel;temperature;humidity
36514;BME280;66331;46.796;9.824;2023-02-18T00:00:39;85574.35;;;3.06;43.91
36514;BME280;66331;46.796;9.824;2023-02-18T00:03:07;85571.92;;;3.20;43.77
36514;BME280;66331;46.796;9.824;2023-02-18T00:05:33;85577.51;;;0.97;47.77
36514;BME280;66331;46.796;9.824;2023-02-18T00:08:00;85572.42;;;0.48;49.42
36514;BME280;66331;46.796;9.824;2023-02-18T00:10:27;85571.38;;;0.45;49.52
36514;BME280;66331;46.796;9.824;2023-02-18T00:12:54;85570.70;;;1.81;46.51
36514;BME280;66331;46.796;9.824;2023-02-18T00:15:21;85565.76;;;1.87;45.38
36514;BME280;66331;46.796;9.824;2023-02-18T00:17:48;85565.23;;;0.85;48.37
36514;BME280;66331;46.796;9.824;2023-02-18T00:20:15;85563.10;;;2.04;46.37
36514;BME280;66331;46.796;9.824;2023-02-18T00:22:41;85558.88;;;1.52;46.99
36514;BME280;66331;46.796;9.824;2023-02-18T00:25:08;85558.45;;;1.32;47.54
36514;BME280;66331;46.796;9.824;2023-02-18T00:27:36;85556.99;;;2.01;46.07
36514;BME280;66331;46.796;9.824;2023-02-18T00:30:04;85555.64;;;2.01;46.42
36514;BME280;66331;46.796;9.824;2023-02-18T00:32:33;85555.99;;;1.65;46.90
36514;BME280;66331;46.796;9.824;2023-02-18T00:35:00;85557.35;;;0.66;49.31
36514;BME280;66331;46.796;9.824;2023-02-18T00:37:27;85552.13;;;1.23;47.63
36514;BME280;66331;46.796;9.824;2023-02-18T00:39:54;85552.68;;;2.30;45.94
36514;BME280;66331;46.796;9.824;2023-02-18T00:42:20;85549.59;;;1.88;47.20
36514;BME280;66331;46.796;9.824;2023-02-18T00:44:47;85550.68;;;2.52;45.98
36514;BME280;66331;46.796;9.824;2023-02-18T00:47:14;85552.74;;;0.69;49.17
36514;BME280;66331;46.796;9.824;2023-02-18T00:49:41;85552.38;;;1.17;48.39
36514;BME280;66331;46.796;9.824;2023-02-18T00:52:08;85549.31;;;1.33;47.65
36514;BME280;66331;46.796;9.824;2023-02-18T00:54:35;85548.24;;;0.45;49.63
36514;BME280;66331;46.796;9.824;2023-02-18T00:57:03;85545.51;;;0.75;49.22
36514;BME280;66331;46.796;9.824;2023-02-18T00:59:31;85544.91;;;0.83;48.96
36514;BME280;66331;46.796;9.824;2023-02-18T01:01:58;85542.75;;;1.14;48.25
36514;BME280;66331;46.796;9.824;2023-02-18T01:04:26;85542.65;;;0.83;48.96
36514;BME280;66331;46.796;9.824;2023-02-18T01:06:54;85546.34;;;1.21;47.99
36514;BME280;66331;46.796;9.824;2023-02-18T01:09:22;85547.42;;;0.71;48.81
36514;BME280;66331;46.796;9.824;2023-02-18T01:11:49;85548.17;;;1.09;48.23
36514;BME280;66331;46.796;9.824;2023-02-18T01:14:16;85546.03;;;0.71;48.46
36514;BME280;66331;46.796;9.824;2023-02-18T01:16:44;85541.88;;;0.30;49.09
36514;BME280;66331;46.796;9.824;2023-02-18T01:19:11;85542.15;;;0.79;48.25
36514;BME280;66331;46.796;9.824;2023-02-18T01:21:39;85544.99;;;1.58;46.81
36514;BME280;66331;46.796;9.824;2023-02-18T01:24:07;85541.75;;;1.79;46.47
36514;BME280;66331;46.796;9.824;2023-02-18T01:26:34;85542.17;;;0.41;49.24
36514;BME280;66331;46.796;9.824;2023-02-18T01:29:01;85541.40;;;0.03;49.92
36514;BME280;66331;46.796;9.824;2023-02-18T01:31:28;85536.83;;;0.00;50.19
36514;BME280;66331;46.796;9.824;2023-02-18T01:33:55;85536.54;;;1.15;48.46
36514;BME280;66331;46.796;9.824;2023-02-18T01:36:23;85533.36;;;0.15;49.05
36514;BME280;66331;46.796;9.824;2023-02-18T01:38:51;85533.00;;;0.90;47.92
36514;BME280;66331;46.796;9.824;2023-02-18T01:41:19;85534.60;;;1.31;47.22
36514;BME280;66331;46.796;9.824;2023-02-18T01:43:48;85529.05;;;0.30;49.12
36514;BME280;66331;46.796;9.824;2023-02-18T01:46:17;85527.98;;;-0.31;50.43
36514;BME280;66331;46.796;9.824;2023-02-18T01:48:51;85528.98;;;0.03;50.72
36514;BME280;66331;46.796;9.824;2023-02-18T01:51:23;85527.88;;;0.16;49.99
36514;BME280;66331;46.796;9.824;2023-02-18T01:53:54;85524.45;;;0.06;50.00
36514;BME280;66331;46.796;9.824;2023-02-18T01:56:27;85524.87;;;0.67;48.93
36514;BME280;66331;46.796;9.824;2023-02-18T01:58:57;85521.97;;;1.34;47.07
36514;BME280;66331;46.796;9.824;2023-02-18T02:01:27;85522.76;;;-1.75;53.24
36514;BME280;66331;46.796;9.824;2023-02-18T02:03:55;85517.02;;;-0.57;50.81
36514;BME280;66331;46.796;9.824;2023-02-18T02:06:28;85514.24;;;-0.22;50.17
36514;BME280;66331;46.796;9.824;2023-02-18T02:09:01;85513.13;;;0.34;49.06
36514;BME280;66331;46.796;9.824;2023-02-18T02:11:58;85511.94;;;0.53;49.63
36514;BME280;66331;46.796;9.824;2023-02-18T02:14:45;85514.16;;;-0.36;50.95
36514;BME280;66331;46.796;9.824;2023-02-18T02:17:19;85513.00;;;-0.45;50.60
36514;BME280;66331;46.796;9.824;2023-02-18T02:20:18;85505.75;;;-0.30;49.98
36514;BME280;66331;46.796;9.824;2023-02-18T02:23:27;85503.96;;;-0.12;49.91
36514;BME280;66331;46.796;9.824;2023-02-18T02:26:43;85509.06;;;0.07;49.07
36514;BME280;66331;46.796;9.824;2023-02-18T02:32:04;85506.17;;;0.23;48.73
36514;BME280;66331;46.796;9.824;2023-02-18T02:34:47;85502.63;;;-0.18;48.93
36514;BME280;66331;46.796;9.824;2023-02-18T02:37:20;85501.37;;;-0.80;49.69
36514;BME280;66331;46.796;9.824;2023-02-18T02:39:56;85500.84;;;-0.81;49.75
36514;BME280;66331;46.796;9.824;2023-02-18T02:42:36;85500.36;;;-0.74;49.59
36514;BME280;66331;46.796;9.824;2023-02-18T02:45:13;85501.36;;;-0.60;48.53
36514;BME280;66331;46.796;9.824;2023-02-18T02:47:50;85502.77;;;-1.35;50.69
36514;BME280;66331;46.796;9.824;2023-02-18T02:50:28;85495.24;;;-0.44;49.86
36514;BME280;66331;46.796;9.824;2023-02-18T02:53:05;85493.94;;;0.22;48.52
36514;BME280;66331;46.796;9.824;2023-02-18T02:55:37;85489.41;;;0.43;48.32
36514;BME280;66331;46.796;9.824;2023-02-18T02:58:04;85489.45;;;0.43;48.47
36514;BME280;66331;46.796;9.824;2023-02-18T03:00:48;85492.11;;;0.46;48.33
36514;BME280;66331;46.796;9.824;2023-02-18T03:03:36;85493.64;;;-0.26;49.15
36514;BME280;66331;46.796;9.824;2023-02-18T03:06:30;85494.92;;;-0.38;48.99
36514;BME280;66331;46.796;9.824;2023-02-18T03:09:09;85497.37;;;-0.54;49.80
36514;BME280;66331;46.796;9.824;2023-02-18T03:11:45;85494.56;;;-1.07;50.31
36514;BME280;66331;46.796;9.824;2023-02-18T03:14:21;85497.35;;;-0.72;50.46
36514;BME280;66331;46.796;9.824;2023-02-18T03:16:58;85497.78;;;-0.36;49.28
36514;BME280;66331;46.796;9.824;2023-02-18T03:19:38;85501.28;;;-2.41;53.56
36514;BME280;66331;46.796;9.824;2023-02-18T03:22:09;85501.57;;;-1.09;51.34
36514;BME280;66331;46.796;9.824;2023-02-18T03:24:40;85496.82;;;-0.91;51.13
36514;BME280;66331;46.796;9.824;2023-02-18T03:27:12;85496.29;;;-0.81;50.69
36514;BME280;66331;46.796;9.824;2023-02-18T03:29:44;85496.22;;;-0.89;50.54
36514;BME280;66331;46.796;9.824;2023-02-18T03:32:16;85501.17;;;-0.58;50.07
36514;BME280;66331;46.796;9.824;2023-02-18T03:34:48;85509.44;;;-0.50;49.18
36514;BME280;66331;46.796;9.824;2023-02-18T03:37:18;85509.70;;;-0.12;49.06
36514;BME280;66331;46.796;9.824;2023-02-18T03:39:50;85512.76;;;-0.30;48.86
36514;BME280;66331;46.796;9.824;2023-02-18T03:42:19;85511.16;;;-0.07;48.79
36514;BME280;66331;46.796;9.824;2023-02-18T03:44:46;85506.11;;;-0.27;48.89
36514;BME280;66331;46.796;9.824;2023-02-18T03:47:13;85505.75;;;-0.42;48.54
36514;BME280;66331;46.796;9.824;2023-02-18T03:49:40;85505.64;;;-1.85;52.17
36514;BME280;66331;46.796;9.824;2023-02-18T03:52:08;85502.15;;;-1.23;51.17
36514;BME280;66331;46.796;9.824;2023-02-18T03:54:36;85498.44;;;-1.14;51.14
36514;BME280;66331;46.796;9.824;2023-02-18T03:57:03;85499.96;;;-0.63;50.33
36514;BME280;66331;46.796;9.824;2023-02-18T03:59:30;85500.04;;;-0.56;49.15
36514;BME280;66331;46.796;9.824;2023-02-18T04:01:57;85502.52;;;-0.67;49.93
36514;BME280;66331;46.796;9.824;2023-02-18T04:04:24;85504.61;;;-0.77;50.11
36514;BME280;66331;46.796;9.824;2023-02-18T04:06:51;85501.10;;;-1.16;50.81
36514;BME280;66331;46.796;9.824;2023-02-18T04:09:19;85500.68;;;-0.59;49.60
36514;BME280;66331;46.796;9.824;2023-02-18T04:11:46;85500.64;;;-1.42;51.53
36514;BME280;66331;46.796;9.824;2023-02-18T04:14:14;85500.96;;;-2.69;54.34
36514;BME280;66331;46.796;9.824;2023-02-18T04:16:41;85501.09;;;-1.37;50.64
36514;BME280;66331;46.796;9.824;2023-02-18T04:19:08;85495.19;;;-1.22;49.85
36514;BME280;66331;46.796;9.824;2023-02-18T04:21:35;85499.11;;;-0.75;49.59
36514;BME280;66331;46.796;9.824;2023-02-18T04:24:02;85498.79;;;-0.96;49.59
36514;BME280;66331;46.796;9.824;2023-02-18T04:26:30;85500.63;;;-1.39;50.65
36514;BME280;66331;46.796;9.824;2023-02-18T04:28:57;85501.02;;;-0.95;49.90
36514;BME280;66331;46.796;9.824;2023-02-18T04:31:24;85495.21;;;-0.18;48.63
36514;BME280;66331;46.796;9.824;2023-02-18T04:33:50;85495.73;;;-1.74;51.74
36514;BME280;66331;46.796;9.824;2023-02-18T04:36:18;85491.98;;;-3.08;54.21
36514;BME280;66331;46.796;9.824;2023-02-18T04:38:44;85490.78;;;-1.68;51.95
36514;BME280;66331;46.796;9.824;2023-02-18T04:41:12;85491.61;;;-1.87;51.57
36514;BME280;66331;46.796;9.824;2023-02-18T04:43:39;85487.49;;;-1.87;51.59
36514;BME280;66331;46.796;9.824;2023-02-18T04:46:06;85483.78;;;-0.88;49.98
36514;BME280;66331;46.796;9.824;2023-02-18T04:48:33;85485.76;;;-1.36;50.70
36514;BME280;66331;46.796;9.824;2023-02-18T04:51:00;85483.31;;;-0.23;48.58
36514;BME280;66331;46.796;9.824;2023-02-18T04:53:28;85479.90;;;0.03;47.53
36514;BME280;66331;46.796;9.824;2023-02-18T04:55:55;85485.53;;;-0.71;49.30
36514;BME280;66331;46.796;9.824;2023-02-18T04:58:22;85489.88;;;-3.23;54.02
36514;BME280;66331;46.796;9.824;2023-02-18T05:00:49;85490.76;;;-2.55;52.93
36514;BME280;66331;46.796;9.824;2023-02-18T05:03:17;85490.61;;;-1.73;51.11
36514;BME280;66331;46.796;9.824;2023-02-18T05:05:44;85490.09;;;-1.71;50.50
36514;BME280;66331;46.796;9.824;2023-02-18T05:08:11;85488.97;;;-0.77;49.10
36514;BME280;66331;46.796;9.824;2023-02-18T05:10:38;85488.18;;;-0.66;48.88
36514;BME280;66331;46.796;9.824;2023-02-18T05:13:05;85483.91;;;-0.74;49.16
36514;BME280;66331;46.796;9.824;2023-02-18T05:15:32;85484.67;;;-0.88;49.03
36514;BME280;66331;46.796;9.824;2023-02-18T05:17:59;85485.11;;;-2.28;51.95
36514;BME280;66331;46.796;9.824;2023-02-18T05:20:27;85484.92;;;-2.66;52.98
36514;BME280;66331;46.796;9.824;2023-02-18T05:22:54;85486.50;;;-2.32;52.10
36514;BME280;66331;46.796;9.824;2023-02-18T05:25:22;85483.61;;;-1.65;50.61
36514;BME280;66331;46.796;9.824;2023-02-18T05:27:49;85481.99;;;-1.61;49.83
36514;BME280;66331;46.796;9.824;2023-02-18T05:30:16;85485.26;;;-0.70;48.39
36514;BME280;66331;46.796;9.824;2023-02-18T05:32:43;85484.13;;;-2.18;51.03
36514;BME280;66331;46.796;9.824;2023-02-18T05:35:10;85485.20;;;-1.41;49.92
36514;BME280;66331;46.796;9.824;2023-02-18T05:37:38;85488.44;;;-1.63;50.40
36514;BME280;66331;46.796;9.824;2023-02-18T05:40:06;85483.13;;;-0.68;48.46
36514;BME280;66331;46.796;9.824;2023-02-18T05:42:33;85485.02;;;-0.92;49.48
36514;BME280;66331;46.796;9.824;2023-02-18T05:45:00;85494.51;;;-1.80;51.44
36514;BME280;66331;46.796;9.824;2023-02-18T05:47:27;85495.24;;;-1.40;49.43
36514;BME280;66331;46.796;9.824;2023-02-18T05:49:54;85498.55;;;-1.57;49.49
36514;BME280;66331;46.796;9.824;2023-02-18T05:52:21;85495.66;;;-1.31;48.85
36514;BME280;66331;46.796;9.824;2023-02-18T05:54:48;85498.37;;;-1.60;49.66
36514;BME280;66331;46.796;9.824;2023-02-18T05:57:15;85498.33;;;-1.17;48.72
36514;BME280;66331;46.796;9.824;2023-02-18T05:59:43;85499.98;;;-0.08;47.07
36514;BME280;66331;46.796;9.824;2023-02-18T06:02:10;85501.18;;;-0.56;47.82
36514;BME280;66331;46.796;9.824;2023-02-18T06:04:37;85499.55;;;-0.61;48.07
36514;BME280;66331;46.796;9.824;2023-02-18T06:07:04;85496.19;;;-2.07;51.06
36514;BME280;66331;46.796;9.824;2023-02-18T06:09:31;85491.69;;;-1.60;49.70
36514;BME280;66331;46.796;9.824;2023-02-18T06:11:58;85487.91;;;-2.15;50.95
36514;BME280;66331;46.796;9.824;2023-02-18T06:14:25;85486.03;;;-2.39;51.09
36514;BME280;66331;46.796;9.824;2023-02-18T06:16:52;85486.90;;;-2.34;50.69
36514;BME280;66331;46.796;9.824;2023-02-18T06:19:19;85483.53;;;-1.49;48.96
36514;BME280;66331;46.796;9.824;2023-02-18T06:21:46;85476.12;;;-1.38;49.04
36514;BME280;66331;46.796;9.824;2023-02-18T06:24:13;85475.33;;;-1.38;49.12
36514;BME280;66331;46.796;9.824;2023-02-18T06:26:39;85473.77;;;-0.28;47.50
36514;BME280;66331;46.796;9.824;2023-02-18T06:29:06;85475.42;;;-2.17;50.59
36514;BME280;66331;46.796;9.824;2023-02-18T06:31:33;85470.78;;;-2.12;51.34
36514;BME280;66331;46.796;9.824;2023-02-18T06:34:00;85472.41;;;-2.21;50.61
36514;BME280;66331;46.796;9.824;2023-02-18T06:36:27;85466.17;;;-2.00;50.36
36514;BME280;66331;46.796;9.824;2023-02-18T06:38:54;85463.52;;;-1.20;48.79
36514;BME280;66331;46.796;9.824;2023-02-18T06:41:21;85462.37;;;-1.34;48.81
36514;BME280;66331;46.796;9.824;2023-02-18T06:43:48;85462.66;;;-1.79;49.45
36514;BME280;66331;46.796;9.824;2023-02-18T06:46:15;85460.47;;;-1.74;50.02
36514;BME280;66331;46.796;9.824;2023-02-18T06:48:42;85458.29;;;-1.60;50.14
36514;BME280;66331;46.796;9.824;2023-02-18T06:51:10;85465.18;;;-2.18;50.77
36514;BME280;66331;46.796;9.824;2023-02-18T06:53:37;85464.08;;;-2.07;50.16
36514;BME280;66331;46.796;9.824;2023-02-18T06:56:04;85464.24;;;-1.78;49.50
36514;BME280;66331;46.796;9.824;2023-02-18T06:58:31;85464.06;;;-1.73;50.32
36514;BME280;66331;46.796;9.824;2023-02-18T07:00:58;85462.58;;;-1.47;49.54
36514;BME280;66331;46.796;9.824;2023-02-18T07:03:25;85464.95;;;-1.83;50.67
36514;BME280;66331;46.796;9.824;2023-02-18T07:05:52;85460.89;;;-1.07;48.45
36514;BME280;66331;46.796;9.824;2023-02-18T07:08:19;85465.37;;;-0.67;48.02
36514;BME280;66331;46.796;9.824;2023-02-18T07:10:46;85463.72;;;-0.05;47.51
36514;BME280;66331;46.796;9.824;2023-02-18T07:13:14;85465.25;;;-1.59;49.95
36514;BME280;66331;46.796;9.824;2023-02-18T07:15:41;85465.86;;;-1.05;49.18
36514;BME280;66331;46.796;9.824;2023-02-18T07:18:08;85468.58;;;-0.07;48.28
36514;BME280;66331;46.796;9.824;2023-02-18T07:20:35;85467.17;;;-1.97;51.08
36514;BME280;66331;46.796;9.824;2023-02-18T07:23:02;85467.12;;;-1.92;50.36
36514;BME280;66331;46.796;9.824;2023-02-18T07:25:29;85461.44;;;-1.79;50.27
36514;BME280;66331;46.796;9.824;2023-02-18T07:27:56;85459.42;;;-1.60;50.04
36514;BME280;66331;46.796;9.824;2023-02-18T07:30:23;85462.21;;;-2.08;51.27
36514;BME280;66331;46.796;9.824;2023-02-18T07:32:50;85458.63;;;-2.60;52.26
36514;BME280;66331;46.796;9.824;2023-02-18T07:35:17;85457.38;;;-2.08;50.64
36514;BME280;66331;46.796;9.824;2023-02-18T07:37:45;85453.50;;;-1.43;49.45
36514;BME280;66331;46.796;9.824;2023-02-18T07:40:14;85453.74;;;-1.49;48.99
36514;BME280;66331;46.796;9.824;2023-02-18T07:42:41;85459.88;;;-1.93;50.42
36514;BME280;66331;46.796;9.824;2023-02-18T07:45:09;85455.23;;;-0.99;48.98
36514;BME280;66331;46.796;9.824;2023-02-18T07:47:36;85455.82;;;-2.61;51.87
36514;BME280;66331;46.796;9.824;2023-02-18T07:50:05;85451.17;;;-1.49;49.69
36514;BME280;66331;46.796;9.824;2023-02-18T07:52:33;85450.97;;;-1.74;50.04
36514;BME280;66331;46.796;9.824;2023-02-18T07:55:00;85451.33;;;-1.04;49.09
36514;BME280;66331;46.796;9.824;2023-02-18T07:57:27;85454.35;;;-0.95;48.69
36514;BME280;66331;46.796;9.824;2023-02-18T07:59:54;85455.47;;;-0.87;48.18
36514;BME280;66331;46.796;9.824;2023-02-18T08:02:22;85456.79;;;-0.58;47.79
36514;BME280;66331;46.796;9.824;2023-02-18T08:04:49;85455.51;;;-0.63;48.00
36514;BME280;66331;46.796;9.824;2023-02-18T08:07:18;85454.52;;;-0.13;47.08
36514;BME280;66331;46.796;9.824;2023-02-18T08:09:46;85456.62;;;-0.40;47.75
36514;BME280;66331;46.796;9.824;2023-02-18T08:12:13;85454.64;;;0.11;47.32
36514;BME280;66331;46.796;9.824;2023-02-18T08:14:40;85455.59;;;-0.79;48.17
36514;BME280;66331;46.796;9.824;2023-02-18T08:17:07;85458.33;;;-1.93;51.53
36514;BME280;66331;46.796;9.824;2023-02-18T08:19:33;85454.78;;;-1.74;51.10
36514;BME280;66331;46.796;9.824;2023-02-18T08:22:01;85453.49;;;-1.23;49.96
36514;BME280;66331;46.796;9.824;2023-02-18T08:24:28;85452.90;;;-1.04;48.45
36514;BME280;66331;46.796;9.824;2023-02-18T08:26:55;85456.37;;;-0.61;48.17
36514;BME280;66331;46.796;9.824;2023-02-18T08:29:22;85452.11;;;-0.84;47.95
36514;BME280;66331;46.796;9.824;2023-02-18T08:31:49;85450.06;;;-0.05;46.55
36514;BME280;66331;46.796;9.824;2023-02-18T08:34:16;85450.29;;;-0.65;47.82
36514;BME280;66331;46.796;9.824;2023-02-18T08:36:43;85447.61;;;-1.59;50.21
36514;BME280;66331;46.796;9.824;2023-02-18T08:39:10;85447.58;;;-0.89;49.85
36514;BME280;66331;46.796;9.824;2023-02-18T08:41:37;85445.41;;;-0.47;48.56
36514;BME280;66331;46.796;9.824;2023-02-18T08:44:04;85447.15;;;-0.40;48.07
36514;BME280;66331;46.796;9.824;2023-02-18T08:46:31;85443.85;;;0.18;47.20
36514;BME280;66331;46.796;9.824;2023-02-18T08:48:58;85439.35;;;0.60;46.32
36514;BME280;66331;46.796;9.824;2023-02-18T08:51:25;85438.67;;;0.28;46.66
36514;BME280;66331;46.796;9.824;2023-02-18T08:53:52;85437.71;;;0.34;46.83
36514;BME280;66331;46.796;9.824;2023-02-18T08:56:19;85438.44;;;0.27;46.83
36514;BME280;66331;46.796;9.824;2023-02-18T08:58:46;85436.21;;;0.44;46.62
36514;BME280;66331;46.796;9.824;2023-02-18T09:01:13;85431.10;;;1.19;45.08
36514;BME280;66331;46.796;9.824;2023-02-18T09:03:40;85423.38;;;2.09;44.02
36514;BME280;66331;46.796;9.824;2023-02-18T09:06:08;85424.42;;;1.48;44.96
36514;BME280;66331;46.796;9.824;2023-02-18T09:08:35;85421.20;;;1.21;45.26
36514;BME280;66331;46.796;9.824;2023-02-18T09:11:03;85418.14;;;1.02;45.12
36514;BME280;66331;46.796;9.824;2023-02-18T09:13:30;85415.88;;;1.38;44.27
36514;BME280;66331;46.796;9.824;2023-02-18T09:16:00;85417.31;;;1.29;44.98
36514;BME280;66331;46.796;9.824;2023-02-18T09:18:27;85411.57;;;2.22;43.67
36514;BME280;66331;46.796;9.824;2023-02-18T09:20:56;85413.28;;;1.82;45.02
36514;BME280;66331;46.796;9.824;2023-02-18T09:23:24;85412.55;;;1.33;44.72
36514;BME280;66331;46.796;9.824;2023-02-18T09:25:51;85409.15;;;1.85;44.03
36514;BME280;66331;46.796;9.824;2023-02-18T09:28:19;85408.39;;;1.79;43.87
36514;BME280;66331;46.796;9.824;2023-02-18T09:30:46;85406.10;;;2.07;43.28
36514;BME280;66331;46.796;9.824;2023-02-18T09:33:13;85401.71;;;1.79;43.55
36514;BME280;66331;46.796;9.824;2023-02-18T09:35:40;85401.09;;;2.06;43.23
36514;BME280;66331;46.796;9.824;2023-02-18T09:38:07;85398.35;;;3.18;42.40
36514;BME280;66331;46.796;9.824;2023-02-18T09:40:37;85397.79;;;3.38;42.17
36514;BME280;66331;46.796;9.824;2023-02-18T09:43:05;85396.77;;;2.74;42.81
36514;BME280;66331;46.796;9.824;2023-02-18T09:45:33;85395.43;;;3.14;42.76
36514;BME280;66331;46.796;9.824;2023-02-18T09:48:01;85392.02;;;3.03;42.22
36514;BME280;66331;46.796;9.824;2023-02-18T09:50:32;85387.50;;;2.99;41.63
36514;BME280;66331;46.796;9.824;2023-02-18T09:53:00;85387.31;;;3.33;41.11
36514;BME280;66331;46.796;9.824;2023-02-18T09:55:31;85383.70;;;3.76;40.93
36514;BME280;66331;46.796;9.824;2023-02-18T09:58:00;85382.57;;;3.50;41.35
36514;BME280;66331;46.796;9.824;2023-02-18T10:00:31;85386.12;;;3.36;41.45
36514;BME280;66331;46.796;9.824;2023-02-18T10:03:03;85387.85;;;4.02;39.92
36514;BME280;66331;46.796;9.824;2023-02-18T10:05:33;85387.08;;;4.09;40.02
36514;BME280;66331;46.796;9.824;2023-02-18T10:08:05;85387.39;;;4.57;39.76
36514;BME280;66331;46.796;9.824;2023-02-18T10:10:37;85387.14;;;4.27;39.24
36514;BME280;66331;46.796;9.824;2023-02-18T10:13:12;85384.87;;;4.16;39.35
36514;BME280;66331;46.796;9.824;2023-02-18T10:15:41;85387.17;;;4.11;39.03
36514;BME280;66331;46.796;9.824;2023-02-18T10:18:20;85387.83;;;4.09;39.04
36514;BME280;66331;46.796;9.824;2023-02-18T10:20:50;85386.74;;;4.44;38.44
36514;BME280;66331;46.796;9.824;2023-02-18T10:23:19;85385.43;;;4.69;38.17
36514;BME280;66331;46.796;9.824;2023-02-18T10:25:48;85387.31;;;4.60;37.39
36514;BME280;66331;46.796;9.824;2023-02-18T10:28:18;85384.69;;;4.95;37.02
36514;BME280;66331;46.796;9.824;2023-02-18T10:30:50;85385.39;;;4.95;37.06
36514;BME280;66331;46.796;9.824;2023-02-18T10:33:30;85384.21;;;4.49;37.06
36514;BME280;66331;46.796;9.824;2023-02-18T10:36:06;85380.14;;;4.92;36.88
36514;BME280;66331;46.796;9.824;2023-02-18T10:38:48;85380.08;;;5.25;36.96
36514;BME280;66331;46.796;9.824;2023-02-18T10:41:26;85374.58;;;5.29;36.17
36514;BME280;66331;46.796;9.824;2023-02-18T10:44:05;85376.04;;;4.96;36.55
36514;BME280;66331;46.796;9.824;2023-02-18T10:46:40;85371.70;;;5.31;35.11
36514;BME280;66331;46.796;9.824;2023-02-18T10:49:29;85369.05;;;5.76;34.24
36514;BME280;66331;46.796;9.824;2023-02-18T10:52:02;85367.15;;;6.07;33.94
36514;BME280;66331;46.796;9.824;2023-02-18T10:54:53;85366.99;;;6.03;33.71
36514;BME280;66331;46.796;9.824;2023-02-18T10:57:24;85366.49;;;6.12;33.46
36514;BME280;66331;46.796;9.824;2023-02-18T10:59:56;85363.40;;;5.96;33.23
36514;BME280;66331;46.796;9.824;2023-02-18T11:02:27;85363.90;;;5.96;33.26
36514;BME280;66331;46.796;9.824;2023-02-18T11:04:54;85358.30;;;6.00;32.94
36514;BME280;66331;46.796;9.824;2023-02-18T11:07:25;85356.23;;;5.83;31.79
36514;BME280;66331;46.796;9.824;2023-02-18T11:09:58;85355.02;;;5.87;33.59
36514;BME280;66331;46.796;9.824;2023-02-18T11:12:29;85351.71;;;5.72;33.71
36514;BME280;66331;46.796;9.824;2023-02-18T11:15:14;85347.08;;;5.90;32.95
36514;BME280;66331;46.796;9.824;2023-02-18T11:17:44;85339.25;;;6.59;31.05
36514;BME280;66331;46.796;9.824;2023-02-18T11:20:30;85334.38;;;6.91;30.78
36514;BME280;66331;46.796;9.824;2023-02-18T11:23:11;85332.97;;;6.76;30.60
36514;BME280;66331;46.796;9.824;2023-02-18T11:25:40;85328.12;;;7.09;30.37
36514;BME280;66331;46.796;9.824;2023-02-18T11:28:26;85326.59;;;7.33;30.83
36514;BME280;66331;46.796;9.824;2023-02-18T11:30:56;85325.90;;;6.94;31.06
36514;BME280;66331;46.796;9.824;2023-02-18T11:33:32;85323.81;;;6.76;30.30
36514;BME280;66331;46.796;9.824;2023-02-18T11:36:04;85318.43;;;7.15;30.74
36514;BME280;66331;46.796;9.824;2023-02-18T11:38:42;85318.09;;;6.96;30.11
36514;BME280;66331;46.796;9.824;2023-02-18T11:41:13;85316.48;;;7.64;30.03
36514;BME280;66331;46.796;9.824;2023-02-18T11:43:42;85306.72;;;7.31;30.04
36514;BME280;66331;46.796;9.824;2023-02-18T11:46:14;85304.60;;;7.30;30.08
36514;BME280;66331;46.796;9.824;2023-02-18T11:48:42;85302.04;;;7.66;29.32
36514;BME280;66331;46.796;9.824;2023-02-18T11:51:15;85297.50;;;8.53;28.24
36514;BME280;66331;46.796;9.824;2023-02-18T11:53:55;85293.94;;;8.84;27.51
36514;BME280;66331;46.796;9.824;2023-02-18T11:56:23;85291.73;;;8.87;26.18
36514;BME280;66331;46.796;9.824;2023-02-18T11:58:51;85289.84;;;9.17;25.89
36514;BME280;66331;46.796;9.824;2023-02-18T12:01:29;85288.08;;;9.06;25.29
36514;BME280;66331;46.796;9.824;2023-02-18T12:04:00;85286.35;;;9.19;25.04
36514;BME280;66331;46.796;9.824;2023-02-18T12:06:34;85285.93;;;9.42;24.33
36514;BME280;66331;46.796;9.824;2023-02-18T12:09:06;85283.77;;;9.46;24.12
36514;BME280;66331;46.796;9.824;2023-02-18T12:11:36;85284.68;;;9.63;24.26
36514;BME280;66331;46.796;9.824;2023-02-18T12:14:13;85280.77;;;9.21;24.22
36514;BME280;66331;46.796;9.824;2023-02-18T12:16:49;85275.07;;;9.43;24.02
36514;BME280;66331;46.796;9.824;2023-02-18T12:19:42;85271.97;;;9.11;23.69
36514;BME280;66331;46.796;9.824;2023-02-18T12:22:23;85265.21;;;9.62;23.37
36514;BME280;66331;46.796;9.824;2023-02-18T12:25:06;85263.10;;;10.02;23.48
36514;BME280;66331;46.796;9.824;2023-02-18T12:27:40;85263.66;;;9.69;23.75
36514;BME280;66331;46.796;9.824;2023-02-18T12:30:26;85256.73;;;10.05;23.84
36514;BME280;66331;46.796;9.824;2023-02-18T12:33:04;85256.62;;;10.60;24.39
36514;BME280;66331;46.796;9.824;2023-02-18T12:35:44;85256.69;;;9.09;25.93
36514;BME280;66331;46.796;9.824;2023-02-18T12:38:26;85255.11;;;8.85;26.58
36514;BME280;66331;46.796;9.824;2023-02-18T12:41:17;85251.56;;;9.05;26.31
36514;BME280;66331;46.796;9.824;2023-02-18T12:43:55;85248.38;;;8.90;25.80
36514;BME280;66331;46.796;9.824;2023-02-18T12:46:39;85248.32;;;8.62;25.75
36514;BME280;66331;46.796;9.824;2023-02-18T12:49:18;85248.93;;;9.29;25.22
36514;BME280;66331;46.796;9.824;2023-02-18T12:52:02;85248.10;;;9.01;25.16
36514;BME280;66331;46.796;9.824;2023-02-18T12:54:43;85249.10;;;9.49;24.67
36514;BME280;66331;46.796;9.824;2023-02-18T12:57:50;85248.97;;;9.20;25.24
36514;BME280;66331;46.796;9.824;2023-02-18T13:00:51;85247.23;;;8.45;26.27
36514;BME280;66331;46.796;9.824;2023-02-18T13:03:53;85249.07;;;8.90;26.21
36514;BME280;66331;46.796;9.824;2023-02-18T13:06:41;85248.83;;;9.25;27.60
36514;BME280;66331;46.796;9.824;2023-02-18T13:09:21;85244.60;;;9.28;26.90
36514;BME280;66331;46.796;9.824;2023-02-18T13:11:56;85246.78;;;9.28;26.71
36514;BME280;66331;46.796;9.824;2023-02-18T13:14:31;85245.38;;;8.73;26.66
36514;BME280;66331;46.796;9.824;2023-02-18T13:17:00;85243.99;;;8.47;26.48
36514;BME280;66331;46.796;9.824;2023-02-18T13:19:31;85245.52;;;8.22;27.00
36514;BME280;66331;46.796;9.824;2023-02-18T13:22:03;85248.58;;;8.34;26.74
36514;BME280;66331;46.796;9.824;2023-02-18T13:24:33;85247.63;;;8.45;26.47
36514;BME280;66331;46.796;9.824;2023-02-18T13:27:07;85248.39;;;8.86;25.88